Terminal Aerodrome Forecast
Issued by NWS Dodge City, KS

Home | Current Version | Previous Version | Text Only | Print | Product List | Glossary Off
Versions: 1 2 3 4 5 6 7 8 9 10 11 12 13 14 15 16 17 18 19 20 21 22 23 24 25 26 27 28 29 30 31 32 33 34 35 36 37 38 39 40 41 42 43 44 45 46 47 48 49 50

968
FTUS43 KDDC 220912 AAC
TAFDDC
TAF AMD
KDDC 220912Z 2209/2306 34004KT P6SM BKN005 OVC014
     FM221700 10009KT P6SM SCT045
     FM230300 11009KT P6SM SCT026=

USA.gov is the U.S. government's official web portal to all federal, state and local government web resources and services.